Leadville, Colorado
Current Conditions -  °F | °C
As of 5:53 AM on Saturday 25 Oct 2014 (Local Time) from KLXV Reporting Station
Clear Clear  
Wind Chill: 25°   Ceiling: Unl
Heat Index: 25°   Visibility: 10mi
Dew Point: 11°   Wind: 3mph
Humidity: 55%   Direction: 20°NNE
Pressure: 30.51"   Gusts: NA
Location:  39.25°N, 106.29°W
Report Text: KLXV 251153Z AUTO 02003KT 10SM CLR M04/M12 A3051 RMK AO2 SLP235 T10391117 10011 21044 55004
Loading
Personal Weather Stations






























Interactive Weather Map
Tropical Storm Tracking
New forecast layout! Learn more

10-Day Weather Forecast

Advertisements
Track Severe Weather on mobile